createdAt,value
2023-04-16T00:00:30.807Z,100853.09
2023-04-16T00:02:45.994Z,100848.81
2023-04-16T00:04:44.517Z,100852.28
2023-04-16T00:06:41.301Z,100854.09
2023-04-16T00:08:37.489Z,100856.72
2023-04-16T00:10:37.833Z,100854.66
2023-04-16T00:12:33.283Z,100854.66
2023-04-16T00:14:30.655Z,100859.09
2023-04-16T00:16:29.001Z,100857.88
2023-04-16T00:18:27.871Z,100858.88
2023-04-16T00:20:26.264Z,100863.84
2023-04-16T00:22:21.375Z,100856.34
2023-04-16T00:24:17.418Z,100858.00
2023-04-16T00:26:16.288Z,100858.56
2023-04-16T00:28:15.384Z,100862.72
2023-04-16T00:30:12.191Z,100860.06
2023-04-16T00:32:08.159Z,100869.66
2023-04-16T00:34:03.969Z,100860.91
2023-04-16T00:36:02.621Z,100861.91
2023-04-16T00:38:00.440Z,100864.53
2023-04-16T00:39:55.831Z,100859.53
2023-04-16T00:41:51.336Z,100862.44
2023-04-16T00:43:46.868Z,100859.13
2023-04-16T00:45:44.976Z,100862.44
2023-04-16T00:47:41.082Z,100861.50
2023-04-16T00:49:39.784Z,100864.94
2023-04-16T00:51:40.134Z,100863.84
2023-04-16T00:53:35.678Z,100865.50
2023-04-16T00:55:31.470Z,100868.16
2023-04-16T00:57:27.209Z,100867.72
2023-04-16T00:59:23.648Z,100865.06
2023-04-16T01:01:18.837Z,100868.28
2023-04-16T01:03:14.647Z,100871.88
2023-04-16T01:05:13.006Z,100871.88
2023-04-16T01:07:11.660Z,100867.47
2023-04-16T01:09:07.175Z,100867.47
2023-04-16T01:11:02.677Z,100872.56
2023-04-16T01:12:57.870Z,100870.78
2023-04-16T01:14:53.458Z,100877.84
2023-04-16T01:16:48.721Z,100874.22
2023-04-16T01:18:44.182Z,100878.53
2023-04-16T01:20:42.226Z,100877.41
2023-04-16T01:22:37.806Z,100882.81
2023-04-16T01:24:33.247Z,100884.47
2023-04-16T01:26:28.792Z,100882.53
2023-04-16T01:28:24.263Z,100880.75
2023-04-16T01:30:19.873Z,100886.00
2023-04-16T01:32:15.187Z,100888.50
2023-04-16T01:34:10.708Z,100880.75
2023-04-16T01:36:09.107Z,100887.69
2023-04-16T01:38:04.693Z,100885.03
2023-04-16T01:39:59.780Z,100890.16
2023-04-16T01:41:55.442Z,100890.16
2023-04-16T01:43:50.642Z,100888.50
2023-04-16T01:45:46.405Z,100889.47
2023-04-16T01:47:41.861Z,100891.97
2023-04-16T01:49:37.728Z,100891.00
2023-04-16T01:51:35.907Z,100891.28
2023-04-16T01:53:31.954Z,100890.16
2023-04-16T01:55:27.196Z,100895.44
2023-04-16T01:57:22.712Z,100894.59
2023-04-16T01:59:17.911Z,100895.28
2023-04-16T02:01:13.548Z,100901.53
2023-04-16T02:03:08.822Z,100900.56
2023-04-16T02:05:04.856Z,100897.25
2023-04-16T02:07:02.538Z,100901.66
2023-04-16T02:08:57.999Z,100900.97
2023-04-16T02:10:53.687Z,100902.13
2023-04-16T02:12:49.398Z,100901.28
2023-04-16T02:14:44.582Z,100899.47
2023-04-16T02:16:40.110Z,100902.81
2023-04-16T02:18:35.314Z,100909.75
2023-04-16T02:20:30.753Z,100907.09
2023-04-16T02:22:28.541Z,100902.81
2023-04-16T02:24:24.812Z,100901.97
2023-04-16T02:26:19.890Z,100909.19
2023-04-16T02:28:16.824Z,100904.59
2023-04-16T02:30:13.666Z,100904.75
2023-04-16T02:32:09.652Z,100911.69
2023-04-16T02:34:05.498Z,100909.06
2023-04-16T02:36:01.519Z,100907.41
2023-04-16T02:37:59.733Z,100911.81
2023-04-16T02:39:55.667Z,100917.94
2023-04-16T02:41:51.084Z,100917.09
2023-04-16T02:43:46.950Z,100918.91
2023-04-16T02:45:42.470Z,100914.44
2023-04-16T02:47:38.258Z,100919.72
2023-04-16T02:49:33.641Z,100914.63
2023-04-16T02:51:29.434Z,100917.25
2023-04-16T02:53:27.325Z,100918.22
2023-04-16T02:55:23.016Z,100917.09
2023-04-16T02:57:15.458Z,100919.72
2023-04-16T02:59:11.101Z,100918.06
2023-04-16T03:01:06.715Z,100913.78
2023-04-16T03:03:02.174Z,100921.53
2023-04-16T03:04:57.385Z,100922.53
2023-04-16T03:06:52.771Z,100913.94
2023-04-16T03:08:50.408Z,100926.25
2023-04-16T03:10:45.813Z,100927.09
2023-04-16T03:12:40.850Z,100920.88
2023-04-16T03:14:36.593Z,100921.84
2023-04-16T03:16:31.661Z,100929.88
2023-04-16T03:18:27.267Z,100928.22
2023-04-16T03:20:22.535Z,100926.41
2023-04-16T03:22:18.218Z,100937.78
2023-04-16T03:24:16.299Z,100927.41
2023-04-16T03:26:11.672Z,100937.78
2023-04-16T03:28:07.170Z,100933.47
2023-04-16T03:30:02.683Z,100930.84
2023-04-16T03:31:57.856Z,100930.84
2023-04-16T03:33:53.272Z,100935.31
2023-04-16T03:35:48.303Z,100941.00
2023-04-16T03:37:43.750Z,100932.22
2023-04-16T03:39:41.632Z,100936.81
2023-04-16T03:41:37.021Z,100939.59
2023-04-16T03:43:32.115Z,100937.78
2023-04-16T03:45:27.512Z,100942.25
2023-04-16T03:47:22.711Z,100946.13
2023-04-16T03:49:18.117Z,100943.50
2023-04-16T03:51:13.171Z,100946.25
2023-04-16T03:53:08.617Z,100948.50
2023-04-16T03:55:06.628Z,100944.03
2023-04-16T03:57:02.522Z,100961.78
2023-04-16T03:58:57.631Z,100958.47
2023-04-16T04:00:55.626Z,100963.06
2023-04-16T04:02:50.798Z,100962.47
2023-04-16T04:04:46.563Z,100968.03
2023-04-16T04:06:41.661Z,100972.50
2023-04-16T04:08:37.048Z,100969.56
2023-04-16T04:10:34.908Z,100969.56
2023-04-16T04:12:30.385Z,100973.88
2023-04-16T04:14:25.489Z,100977.47
2023-04-16T04:16:25.553Z,100975.53
2023-04-16T04:18:20.683Z,100980.81
2023-04-16T04:20:16.507Z,100982.34
2023-04-16T04:22:11.537Z,100987.34
2023-04-16T04:24:07.220Z,100987.03
2023-04-16T04:26:05.929Z,100981.78
2023-04-16T04:28:01.464Z,100983.72
2023-04-16T04:29:56.627Z,100993.41
2023-04-16T04:31:52.133Z,100990.09
2023-04-16T04:33:47.649Z,100992.59
2023-04-16T04:35:43.059Z,100987.03
2023-04-16T04:37:38.283Z,100987.88
2023-04-16T04:39:33.721Z,100991.47
2023-04-16T04:41:31.429Z,100989.28
2023-04-16T04:43:26.887Z,100990.78
2023-04-16T04:45:25.543Z,100994.53
2023-04-16T04:47:21.159Z,100998.69
2023-04-16T04:49:16.219Z,101002.28
2023-04-16T04:51:11.714Z,101003.97
2023-04-16T04:53:09.934Z,101004.81
2023-04-16T04:55:05.816Z,101007.56
2023-04-16T04:57:04.408Z,101000.09
2023-04-16T04:59:00.057Z,101008.69
2023-04-16T05:00:55.201Z,101007.03
2023-04-16T05:02:51.900Z,101005.09
2023-04-16T05:04:47.410Z,101012.13
2023-04-16T05:06:42.882Z,101012.41
2023-04-16T05:08:37.936Z,101016.16
2023-04-16T05:10:33.330Z,101016.69
2023-04-16T05:12:31.044Z,101020.72
2023-04-16T05:14:26.484Z,101023.78
2023-04-16T05:16:21.595Z,101024.47
2023-04-16T05:18:17.031Z,101029.59
2023-04-16T05:20:12.867Z,101031.53
2023-04-16T05:22:08.263Z,101026.16
2023-04-16T05:24:03.365Z,101036.97
2023-04-16T05:25:58.859Z,101040.69
2023-04-16T05:27:56.444Z,101045.97
2023-04-16T05:29:51.801Z,101040.56
2023-04-16T05:31:47.067Z,101041.53
2023-04-16T05:33:42.449Z,101048.03
2023-04-16T05:35:37.740Z,101049.84
2023-04-16T05:37:33.204Z,101050.84
2023-04-16T05:39:28.209Z,101048.88
2023-04-16T05:41:23.614Z,101049.97
2023-04-16T05:43:21.390Z,101050.84
2023-04-16T05:45:16.776Z,101050.94
2023-04-16T05:47:11.794Z,101052.63
2023-04-16T05:49:07.304Z,101047.06
2023-04-16T05:51:02.827Z,101054.84
2023-04-16T05:52:58.151Z,101045.97
2023-04-16T05:54:53.184Z,101058.31
2023-04-16T05:56:48.817Z,101057.22
2023-04-16T05:58:46.394Z,101048.22
2023-04-16T06:00:42.332Z,101059.56
2023-04-16T06:02:37.556Z,101058.59
2023-04-16T06:04:33.490Z,101055.97
2023-04-16T06:06:28.646Z,101067.19
2023-04-16T06:08:23.992Z,101072.47
2023-04-16T06:10:19.177Z,101074.13
2023-04-16T06:12:14.721Z,101073.84
2023-04-16T06:14:12.349Z,101072.06
2023-04-16T06:16:11.319Z,101080.38
2023-04-16T06:18:06.620Z,101082.03
2023-04-16T06:20:05.082Z,101088.44
2023-04-16T06:22:00.459Z,101083.28
2023-04-16T06:23:57.298Z,101084.13
2023-04-16T06:25:52.418Z,101086.59
2023-04-16T06:27:47.883Z,101088.44
2023-04-16T06:29:45.599Z,101092.03
2023-04-16T06:31:41.469Z,101090.22
2023-04-16T06:33:36.583Z,101095.22
2023-04-16T06:35:32.072Z,101100.47
2023-04-16T06:37:27.181Z,101096.47
2023-04-16T06:39:22.873Z,101098.81
2023-04-16T06:41:17.984Z,101093.53
2023-04-16T06:43:13.459Z,101091.75
2023-04-16T06:45:12.523Z,101100.63
2023-04-16T06:47:08.004Z,101103.13
2023-04-16T06:49:03.137Z,101096.75
2023-04-16T06:50:58.912Z,101094.94
2023-04-16T06:52:54.015Z,101097.72
2023-04-16T06:54:49.523Z,101091.59
2023-04-16T06:56:44.580Z,101103.41
2023-04-16T06:58:40.030Z,101105.63
2023-04-16T07:00:38.094Z,101105.63
2023-04-16T07:02:33.903Z,101111.59
2023-04-16T07:04:29.394Z,101111.59
2023-04-16T07:06:25.045Z,101106.16
2023-04-16T07:08:20.348Z,101113.25
2023-04-16T07:10:16.423Z,101111.44
2023-04-16T07:12:12.272Z,101109.09
2023-04-16T07:14:08.592Z,101115.03
2023-04-16T07:16:06.869Z,101116.72
2023-04-16T07:18:02.782Z,101120.06
2023-04-16T07:19:58.139Z,101110.34
2023-04-16T07:21:53.948Z,101117.28
2023-04-16T07:23:49.405Z,101116.59
2023-04-16T07:25:45.036Z,101124.38
2023-04-16T07:27:40.150Z,101120.19
2023-04-16T07:29:35.680Z,101123.53
2023-04-16T07:31:33.362Z,101126.84
2023-04-16T07:33:28.902Z,101126.72
2023-04-16T07:35:23.978Z,101128.41
2023-04-16T07:37:19.357Z,101135.47
2023-04-16T07:39:14.415Z,101135.75
2023-04-16T07:41:10.938Z,101133.13
2023-04-16T07:43:06.167Z,101139.94
2023-04-16T07:45:01.665Z,101142.41
2023-04-16T07:46:59.402Z,101140.75
2023-04-16T07:48:54.812Z,101146.59
2023-04-16T07:50:50.368Z,101148.25
2023-04-16T07:52:46.100Z,101145.63
2023-04-16T07:54:41.197Z,101149.78
2023-04-16T07:56:36.617Z,101141.44
2023-04-16T07:58:31.709Z,101153.53
2023-04-16T08:00:27.093Z,101152.69
2023-04-16T08:02:24.844Z,101151.44
2023-04-16T08:04:25.334Z,101161.13
2023-04-16T08:06:20.872Z,101156.16
2023-04-16T08:08:16.333Z,101161.41
2023-04-16T08:10:12.527Z,101157.53
2023-04-16T08:12:08.470Z,101155.03
2023-04-16T08:14:04.242Z,101161.03
2023-04-16T08:15:59.786Z,101171.69
2023-04-16T08:17:57.580Z,101170.03
2023-04-16T08:19:53.034Z,101167.38
2023-04-16T08:21:48.145Z,101171.41
2023-04-16T08:23:43.570Z,101167.53
2023-04-16T08:25:38.751Z,101174.63
2023-04-16T08:27:34.236Z,101176.69
2023-04-16T08:29:29.337Z,101180.97
2023-04-16T08:31:24.995Z,101182.09
2023-04-16T08:33:22.640Z,101178.91
2023-04-16T08:35:18.145Z,101187.38
2023-04-16T08:37:13.388Z,101183.19
2023-04-16T08:39:09.095Z,101189.72
2023-04-16T08:41:08.730Z,101191.81
2023-04-16T08:43:28.161Z,101192.22
2023-04-16T08:45:23.450Z,101195.56
2023-04-16T08:47:19.055Z,101199.47
2023-04-16T08:49:19.672Z,101198.06
2023-04-16T08:51:17.375Z,101198.78
2023-04-16T08:53:18.349Z,101198.63
2023-04-16T08:55:16.962Z,101202.78
2023-04-16T08:57:14.614Z,101201.53
2023-04-16T08:59:10.565Z,101205.72
2023-04-16T09:01:06.479Z,101202.22
2023-04-16T09:03:02.182Z,101212.25
2023-04-16T09:05:02.697Z,101214.72
2023-04-16T09:06:59.452Z,101211.81
2023-04-16T09:08:58.225Z,101213.91
2023-04-16T09:10:54.758Z,101211.28
2023-04-16T09:12:49.800Z,101215.59
2023-04-16T09:14:45.248Z,101215.16
2023-04-16T09:16:40.458Z,101219.72
2023-04-16T09:18:36.072Z,101226.22
2023-04-16T09:20:33.763Z,101225.41
2023-04-16T09:22:29.198Z,101229.44
2023-04-16T09:24:24.889Z,101229.31
2023-04-16T09:26:20.954Z,101224.97
2023-04-16T09:28:16.316Z,101232.78
2023-04-16T09:30:26.225Z,101237.47
2023-04-16T09:32:28.064Z,101234.81
2023-04-16T09:34:23.872Z,101237.34
2023-04-16T09:36:26.550Z,101235.69
2023-04-16T09:38:22.860Z,101240.41
2023-04-16T09:40:27.366Z,101241.09
2023-04-16T09:42:27.431Z,101242.06
2023-04-16T09:44:22.807Z,101236.69
2023-04-16T09:46:18.653Z,101247.91
2023-04-16T09:48:15.296Z,101248.47
2023-04-16T09:50:12.870Z,101249.03
2023-04-16T09:52:15.431Z,101247.78
2023-04-16T09:54:11.451Z,101245.06
2023-04-16T09:56:09.675Z,101246.56
2023-04-16T09:58:05.625Z,101245.59
2023-04-16T10:00:07.934Z,101248.69
2023-04-16T10:02:14.483Z,101238.38
2023-04-16T10:04:12.772Z,101244.94
2023-04-16T10:06:18.243Z,101249.81
2023-04-16T10:08:19.611Z,101257.72
2023-04-16T10:10:15.739Z,101252.44
2023-04-16T10:12:12.939Z,101254.50
2023-04-16T10:14:08.771Z,101257.44
2023-04-16T10:16:06.046Z,101262.03
2023-04-16T10:18:02.208Z,101259.41
2023-04-16T10:19:58.260Z,101262.72
2023-04-16T10:21:54.024Z,101263.81
2023-04-16T10:23:54.306Z,101261.47
2023-04-16T10:25:51.249Z,101267.19
2023-04-16T10:27:47.226Z,101266.34
2023-04-16T10:29:43.116Z,101256.50
2023-04-16T10:31:39.629Z,101257.19
2023-04-16T10:33:37.805Z,101254.66
2023-04-16T10:35:33.379Z,101254.81
2023-04-16T10:37:33.753Z,101254.81
2023-04-16T10:39:33.119Z,101255.38
2023-04-16T10:41:29.492Z,101256.34
2023-04-16T10:43:24.609Z,101256.34
2023-04-16T10:45:19.719Z,101259.25
2023-04-16T10:47:16.678Z,101264.69
2023-04-16T10:49:20.566Z,101263.28
2023-04-16T10:51:27.938Z,101268.56
2023-04-16T10:53:26.892Z,101270.25
2023-04-16T10:55:25.064Z,101270.09
2023-04-16T10:57:22.712Z,101267.06
2023-04-16T10:59:21.883Z,101266.19
2023-04-16T11:01:17.693Z,101270.78
2023-04-16T11:03:12.982Z,101271.47
2023-04-16T11:05:09.705Z,101274.53
2023-04-16T11:07:06.945Z,101271.34
2023-04-16T11:09:02.020Z,101279.97
2023-04-16T11:11:01.769Z,101279.00
2023-04-16T11:12:58.262Z,101275.94
2023-04-16T11:14:55.442Z,101272.19
2023-04-16T11:16:50.505Z,101273.56
2023-04-16T11:18:51.815Z,101279.53
2023-04-16T11:20:47.798Z,101281.78
2023-04-16T11:22:42.969Z,101283.31
2023-04-16T11:24:40.559Z,101278.31
2023-04-16T11:26:38.289Z,101279.53
2023-04-16T11:28:37.192Z,101280.38
2023-04-16T11:30:34.081Z,101280.09
2023-04-16T11:32:29.644Z,101280.38
2023-04-16T11:34:25.067Z,101287.03
2023-04-16T11:36:20.693Z,101290.38
2023-04-16T11:38:15.737Z,101288.56
2023-04-16T11:40:12.687Z,101287.03
2023-04-16T11:42:10.501Z,101291.47
2023-04-16T11:44:20.193Z,101294.53
2023-04-16T11:46:26.865Z,101289.69
2023-04-16T11:48:22.400Z,101291.22
2023-04-16T11:50:22.857Z,101286.34
2023-04-16T11:52:28.121Z,101286.91
2023-04-16T11:54:24.402Z,101289.13
2023-04-16T11:56:27.565Z,101294.00
2023-04-16T11:58:25.858Z,101290.94
2023-04-16T12:00:24.454Z,101295.78
2023-04-16T12:02:20.283Z,101295.09
2023-04-16T12:04:17.007Z,101296.63
2023-04-16T12:06:13.007Z,101293.72
2023-04-16T12:08:10.245Z,101294.13
2023-04-16T12:10:10.112Z,101300.09
2023-04-16T12:12:05.801Z,101301.91
2023-04-16T12:14:14.027Z,101297.75
2023-04-16T12:16:22.587Z,101293.44
2023-04-16T12:18:18.662Z,101298.88
2023-04-16T12:20:15.502Z,101305.25
2023-04-16T12:22:10.833Z,101296.47
2023-04-16T12:24:13.755Z,101296.34
2023-04-16T12:26:14.453Z,101309.41
2023-04-16T12:28:10.348Z,101301.22
2023-04-16T12:30:10.052Z,101301.91
2023-04-16T12:32:05.633Z,101306.06
2023-04-16T12:34:05.151Z,101299.81
2023-04-16T12:36:01.901Z,101303.69
2023-04-16T12:37:58.429Z,101309.97
2023-04-16T12:39:53.898Z,101309.00
2023-04-16T12:41:49.188Z,101305.66
2023-04-16T12:43:44.884Z,101300.25
2023-04-16T12:45:43.545Z,101300.38
2023-04-16T12:47:39.347Z,101303.88
2023-04-16T12:49:38.904Z,101303.72
2023-04-16T12:51:34.910Z,101308.72
2023-04-16T12:53:30.248Z,101310.66
2023-04-16T12:55:26.066Z,101302.59
2023-04-16T12:57:23.960Z,101309.44
2023-04-16T12:59:19.771Z,101314.72
2023-04-16T13:01:17.783Z,101313.88
2023-04-16T13:03:13.676Z,101312.31
2023-04-16T13:05:10.582Z,101321.66
2023-04-16T13:07:06.284Z,101319.16
2023-04-16T13:09:01.722Z,101319.84
2023-04-16T13:10:57.698Z,101325.00
2023-04-16T13:12:53.170Z,101320.97
2023-04-16T13:14:48.953Z,101337.50
2023-04-16T13:16:46.666Z,101328.31
2023-04-16T13:18:42.245Z,101333.59
2023-04-16T13:20:37.342Z,101330.00
2023-04-16T13:22:33.206Z,101338.03
2023-04-16T13:24:28.546Z,101332.06
2023-04-16T13:26:23.917Z,101338.19
2023-04-16T13:28:20.767Z,101343.59
2023-04-16T13:30:16.749Z,101343.06
2023-04-16T13:32:14.888Z,101351.69
2023-04-16T13:34:10.343Z,101345.81
2023-04-16T13:36:05.575Z,101347.47
2023-04-16T13:38:01.064Z,101354.72
2023-04-16T13:39:56.625Z,101346.38
2023-04-16T13:41:52.048Z,101347.19
2023-04-16T13:43:47.248Z,101349.59
2023-04-16T13:45:42.768Z,101348.06
2023-04-16T13:47:41.507Z,101356.53
2023-04-16T13:49:37.201Z,101348.47
2023-04-16T13:51:32.270Z,101341.25
2023-04-16T13:53:27.675Z,101343.34
2023-04-16T13:55:22.700Z,101345.25
2023-04-16T13:57:18.222Z,101344.44
2023-04-16T13:59:15.721Z,101345.25
2023-04-16T14:01:12.398Z,101342.34
2023-04-16T14:03:10.331Z,101342.22
2023-04-16T14:05:06.908Z,101345.56
2023-04-16T14:07:02.487Z,101351.94
2023-04-16T14:08:57.999Z,101340.13
2023-04-16T14:10:55.552Z,101345.84
2023-04-16T14:12:51.536Z,101346.66
2023-04-16T14:14:46.689Z,101355.44
2023-04-16T14:16:42.461Z,101348.06
2023-04-16T14:18:42.497Z,101345.84
2023-04-16T14:20:39.962Z,101351.53
2023-04-16T14:22:35.107Z,101351.66
2023-04-16T14:24:30.586Z,101348.88
2023-04-16T14:26:26.030Z,101339.16
2023-04-16T14:28:22.952Z,101342.63
2023-04-16T14:30:21.080Z,101345.16
2023-04-16T14:32:16.843Z,101347.78
2023-04-16T14:34:14.944Z,101344.16
2023-04-16T14:36:11.656Z,101353.88
2023-04-16T14:38:06.833Z,101352.09
2023-04-16T14:40:03.891Z,101346.38
2023-04-16T14:41:58.981Z,101344.44
2023-04-16T14:43:54.368Z,101341.66
2023-04-16T14:45:49.453Z,101352.78
2023-04-16T14:47:47.761Z,101344.88
2023-04-16T14:49:45.795Z,101348.31
2023-04-16T14:51:41.444Z,101345.41
2023-04-16T14:53:36.722Z,101344.56
2023-04-16T14:55:32.221Z,101348.88
2023-04-16T14:57:27.897Z,101347.63
2023-04-16T14:59:23.280Z,101343.72
2023-04-16T15:01:18.353Z,101349.19
2023-04-16T15:03:13.995Z,101348.19
2023-04-16T15:05:12.758Z,101347.78
2023-04-16T15:07:08.206Z,101357.91
2023-04-16T15:09:03.367Z,101356.69
2023-04-16T15:10:58.928Z,101363.06
2023-04-16T15:12:54.069Z,101356.97
2023-04-16T15:14:49.759Z,101364.03
2023-04-16T15:16:45.304Z,101363.22
2023-04-16T15:18:41.051Z,101370.41
2023-04-16T15:20:39.153Z,101367.66
2023-04-16T15:22:34.571Z,101369.19
2023-04-16T15:24:29.631Z,101380.03
2023-04-16T15:26:24.965Z,101377.38
2023-04-16T15:28:20.000Z,101376.41
2023-04-16T15:30:16.307Z,101379.06
2023-04-16T15:32:11.366Z,101377.38
2023-04-16T15:34:06.834Z,101379.06
2023-04-16T15:36:04.462Z,101379.34
2023-04-16T15:37:59.936Z,101376.69
2023-04-16T15:39:55.080Z,101378.47
2023-04-16T15:42:00.824Z,101378.34
2023-04-16T15:43:57.414Z,101380.72
2023-04-16T15:45:52.891Z,101383.38
2023-04-16T15:47:51.367Z,101375.56
2023-04-16T15:49:47.170Z,101386.97
2023-04-16T15:51:45.013Z,101388.91
2023-04-16T15:53:40.608Z,101383.63
2023-04-16T15:55:36.005Z,101392.38
2023-04-16T15:57:31.777Z,101387.94
2023-04-16T15:59:28.880Z,101401.00
2023-04-16T16:01:24.732Z,101395.88
2023-04-16T16:03:20.658Z,101392.25
2023-04-16T16:05:17.518Z,101401.00
2023-04-16T16:07:18.904Z,101402.81
2023-04-16T16:09:14.280Z,101398.34
2023-04-16T16:11:09.377Z,101404.75
2023-04-16T16:13:12.980Z,101396.69
2023-04-16T16:15:11.362Z,101402.94
2023-04-16T16:17:06.972Z,101404.47
2023-04-16T16:19:02.144Z,101398.63
2023-04-16T16:21:01.713Z,101409.06
2023-04-16T16:22:59.307Z,101416.03
2023-04-16T16:24:55.812Z,101412.25
2023-04-16T16:26:50.890Z,101419.91
2023-04-16T16:28:48.065Z,101414.78
2023-04-16T16:30:43.201Z,101419.19
2023-04-16T16:32:41.025Z,101421.03
2023-04-16T16:34:37.481Z,101423.38
2023-04-16T16:36:36.796Z,101417.25
2023-04-16T16:38:34.847Z,101413.91
2023-04-16T16:40:30.661Z,101412.97
2023-04-16T16:42:26.716Z,101412.22
2023-04-16T16:44:22.323Z,101416.69
2023-04-16T16:46:17.481Z,101422.25
2023-04-16T16:48:13.062Z,101416.53
2023-04-16T16:50:11.534Z,101414.72
2023-04-16T16:52:07.371Z,101416.41
2023-04-16T16:54:05.158Z,101420.84
2023-04-16T16:56:00.692Z,101421.94
2023-04-16T16:57:56.296Z,101423.75
2023-04-16T16:59:51.681Z,101429.88
2023-04-16T17:01:46.722Z,101432.50
2023-04-16T17:03:42.459Z,101427.50
2023-04-16T17:05:37.710Z,101428.31
2023-04-16T17:07:33.193Z,101428.75
2023-04-16T17:09:30.821Z,101431.50
2023-04-16T17:11:27.271Z,101434.28
2023-04-16T17:13:22.403Z,101436.94
2023-04-16T17:15:19.785Z,101439.84
2023-04-16T17:17:16.689Z,101440.94
2023-04-16T17:19:12.405Z,101443.44
2023-04-16T17:21:07.978Z,101452.47
2023-04-16T17:23:03.880Z,101452.34
2023-04-16T17:25:01.769Z,101443.56
2023-04-16T17:26:58.656Z,101444.81
2023-04-16T17:28:56.741Z,101452.56
2023-04-16T17:30:56.405Z,101447.44
2023-04-16T17:32:54.194Z,101454.78
2023-04-16T17:34:50.053Z,101459.50
2023-04-16T17:36:47.021Z,101453.66
2023-04-16T17:38:44.774Z,101462.38
2023-04-16T17:40:42.988Z,101466.97
2023-04-16T17:42:39.098Z,101468.78
2023-04-16T17:44:34.438Z,101475.56
2023-04-16T17:46:30.184Z,101471.41
2023-04-16T17:48:26.058Z,101473.34
2023-04-16T17:50:22.225Z,101477.66
2023-04-16T17:52:17.615Z,101476.00
2023-04-16T17:54:13.489Z,101479.59
2023-04-16T17:56:11.780Z,101480.31
2023-04-16T17:58:07.672Z,101478.38
2023-04-16T18:00:05.996Z,101480.31
2023-04-16T18:02:02.193Z,101485.69
2023-04-16T18:03:57.744Z,101487.38
2023-04-16T18:05:53.687Z,101490.41
2023-04-16T18:07:49.263Z,101494.13
2023-04-16T18:09:44.916Z,101500.28
2023-04-16T18:11:42.815Z,101496.34
2023-04-16T18:13:38.789Z,101500.66
2023-04-16T18:15:34.115Z,101505.94
2023-04-16T18:17:30.038Z,101504.53
2023-04-16T18:19:25.403Z,101512.28
2023-04-16T18:21:21.116Z,101509.53
2023-04-16T18:23:16.464Z,101512.50
2023-04-16T18:25:12.308Z,101512.66
2023-04-16T18:27:10.329Z,101524.88
2023-04-16T18:29:05.962Z,101518.19
2023-04-16T18:31:04.977Z,101513.41
2023-04-16T18:33:33.619Z,101525.78
2023-04-16T18:35:15.604Z,101522.44
2023-04-16T18:37:10.971Z,101527.56
2023-04-16T18:39:07.525Z,101530.09
2023-04-16T18:41:03.142Z,101537.16
2023-04-16T18:43:00.810Z,101544.09
2023-04-16T18:44:56.322Z,101534.41
2023-04-16T18:46:51.779Z,101547.97
2023-04-16T18:48:47.735Z,101544.34
2023-04-16T18:50:42.826Z,101538.53
2023-04-16T18:52:38.510Z,101551.94
2023-04-16T18:54:33.556Z,101551.94
2023-04-16T18:56:29.000Z,101545.84
2023-04-16T18:58:27.273Z,101549.19
2023-04-16T19:00:22.981Z,101546.81
2023-04-16T19:02:18.281Z,101545.94
2023-04-16T19:04:13.715Z,101547.06
2023-04-16T19:06:09.214Z,101550.50
2023-04-16T19:08:04.655Z,101553.41
2023-04-16T19:10:00.237Z,101544.78
2023-04-16T19:11:56.223Z,101551.03
2023-04-16T19:13:54.125Z,101552.84
2023-04-16T19:15:49.735Z,101551.03
2023-04-16T19:17:44.929Z,101559.09
2023-04-16T19:19:40.720Z,101556.81
2023-04-16T19:21:37.213Z,101555.84
2023-04-16T19:23:32.734Z,101555.97
2023-04-16T19:25:27.890Z,101558.03
2023-04-16T19:27:23.295Z,101558.03
2023-04-16T19:29:21.008Z,101553.72
2023-04-16T19:31:16.530Z,101562.59
2023-04-16T19:33:11.728Z,101558.16
2023-04-16T19:35:08.411Z,101568.84
2023-04-16T19:37:03.457Z,101564.28
2023-04-16T19:38:58.849Z,101564.53
2023-04-16T19:40:53.994Z,101570.16
2023-04-16T19:42:49.591Z,101568.22
2023-04-16T19:44:47.549Z,101566.66
2023-04-16T19:46:42.966Z,101570.16
2023-04-16T19:48:38.328Z,101573.63
2023-04-16T19:50:33.673Z,101569.19
2023-04-16T19:52:28.746Z,101576.25
2023-04-16T19:54:24.484Z,101571.94
2023-04-16T19:56:19.773Z,101573.50
2023-04-16T19:58:15.359Z,101568.34
2023-04-16T20:00:14.755Z,101573.63
2023-04-16T20:02:10.373Z,101570.88
2023-04-16T20:04:07.010Z,101565.72
2023-04-16T20:06:04.043Z,101570.97
2023-04-16T20:08:00.113Z,101571.72
2023-04-16T20:09:55.988Z,101575.44
2023-04-16T20:11:51.649Z,101574.72
2023-04-16T20:13:49.194Z,101582.03
2023-04-16T20:15:47.271Z,101583.84
2023-04-16T20:17:42.748Z,101580.50
2023-04-16T20:19:38.030Z,101579.03
2023-04-16T20:21:34.314Z,101582.41
2023-04-16T20:23:29.362Z,101579.66
2023-04-16T20:25:26.365Z,101580.00
2023-04-16T20:27:22.137Z,101576.53
2023-04-16T20:29:17.985Z,101581.56
2023-04-16T20:31:16.304Z,101578.22
2023-04-16T20:33:12.323Z,101581.09
2023-04-16T20:35:11.256Z,101582.06
2023-04-16T20:37:07.458Z,101584.00
2023-04-16T20:39:03.886Z,101581.59
2023-04-16T20:41:06.593Z,101590.59
2023-04-16T20:43:02.955Z,101583.53
2023-04-16T20:45:00.818Z,101586.97
2023-04-16T20:46:58.704Z,101584.00
2023-04-16T20:48:54.564Z,101598.03
2023-04-16T20:50:50.390Z,101596.59
2023-04-16T20:52:46.655Z,101591.44
2023-04-16T20:54:42.025Z,101597.56
2023-04-16T20:56:37.977Z,101597.91
2023-04-16T20:58:33.303Z,101599.34
2023-04-16T21:00:29.427Z,101599.34
2023-04-16T21:02:28.661Z,101597.56
2023-04-16T21:04:24.833Z,101605.91
2023-04-16T21:06:22.699Z,101599.22
2023-04-16T21:08:18.356Z,101596.47
2023-04-16T21:10:20.396Z,101604.13
2023-04-16T21:12:16.166Z,101601.50
2023-04-16T21:14:11.750Z,101598.41
2023-04-16T21:16:09.951Z,101603.78
2023-04-16T21:18:07.925Z,101602.94
2023-04-16T21:20:04.036Z,101603.41
2023-04-16T21:22:28.435Z,101600.06
2023-04-16T21:24:27.469Z,101603.41
2023-04-16T21:26:22.778Z,101601.53
2023-04-16T21:28:18.419Z,101602.59
2023-04-16T21:30:14.940Z,101606.19
2023-04-16T21:32:10.598Z,101600.91
2023-04-16T21:34:08.875Z,101600.78
2023-04-16T21:36:05.036Z,101601.88
2023-04-16T21:38:00.377Z,101604.38
2023-04-16T21:39:55.867Z,101605.31
2023-04-16T21:41:51.036Z,101604.63
2023-04-16T21:43:46.849Z,101603.78
2023-04-16T21:45:42.194Z,101603.19
2023-04-16T21:47:37.841Z,101605.72
2023-04-16T21:49:35.658Z,101597.66
2023-04-16T21:51:31.720Z,101601.16
2023-04-16T21:53:28.168Z,101602.22
2023-04-16T21:55:24.070Z,101606.44
2023-04-16T21:57:19.254Z,101603.31
2023-04-16T21:59:14.736Z,101600.69
2023-04-16T22:01:11.039Z,101601.41
2023-04-16T22:03:09.118Z,101607.50
2023-04-16T22:05:07.531Z,101597.19
2023-04-16T22:07:03.317Z,101606.91
2023-04-16T22:08:58.980Z,101601.03
2023-04-16T22:10:54.486Z,101601.16